Time;durP1;ratioP1;P1;durP2;ratioP2;P2;SDS_P1;SDS_P2;PMS_P1;PMS_P2;Temp;Humidity;BMP_temperature;BMP_pressure;BME280_temperature;BME280_humidity;BME280_pressure;Samples;Min_cycle;Max_cycle;Signal;HPM_P1;HPM_P2
2022/05/30 00:00:50;;;;;;;76.35;50.00;;;16.30;61.20;;;;;;4919737;28;96879;-39
2022/05/30 00:03:18;;;;;;;76.88;49.83;;;16.30;60.90;;;;;;4914321;28;102065;-39
2022/05/30 00:05:46;;;;;;;76.18;49.83;;;16.30;60.90;;;;;;4914872;28;95063;-39
2022/05/30 00:08:12;;;;;;;76.10;49.92;;;16.30;61.00;;;;;;4920283;28;96984;-41
2022/05/30 00:10:37;;;;;;;77.25;50.25;;;16.30;61.30;;;;;;4917891;28;95001;-42
2022/05/30 00:13:03;;;;;;;76.82;50.05;;;16.30;61.30;;;;;;4918841;28;94550;-42
2022/05/30 00:15:29;;;;;;;77.30;50.10;;;16.20;61.20;;;;;;4907244;28;97719;-38
2022/05/30 00:17:56;;;;;;;76.90;49.90;;;16.30;61.60;;;;;;4919846;28;96064;-40
2022/05/30 00:20:23;;;;;;;76.65;49.85;;;16.20;61.30;;;;;;4917743;28;96638;-39
2022/05/30 00:22:49;;;;;;;77.25;50.05;;;16.20;61.50;;;;;;4922550;28;94740;-39
2022/05/30 00:25:14;;;;;;;75.93;49.70;;;16.20;61.40;;;;;;4909088;28;95331;-39
2022/05/30 00:27:40;;;;;;;76.28;49.85;;;16.20;61.60;;;;;;4914948;28;95449;-39
2022/05/30 00:30:07;;;;;;;77.15;49.88;;;16.20;61.70;;;;;;4904468;28;95241;-40
2022/05/30 00:32:34;;;;;;;75.95;49.88;;;16.20;61.80;;;;;;4922213;28;95848;-41
2022/05/30 00:34:59;;;;;;;78.30;49.85;;;16.10;61.60;;;;;;4916717;28;95336;-40
2022/05/30 00:37:26;;;;;;;76.03;49.80;;;16.20;61.60;;;;;;4923715;28;95359;-41
2022/05/30 00:39:52;;;;;;;77.03;49.97;;;16.10;61.50;;;;;;4915719;28;95710;-40
2022/05/30 00:42:21;;;;;;;76.70;50.20;;;16.10;61.80;;;;;;4923980;28;96050;-39
2022/05/30 00:44:48;;;;;;;76.25;50.05;;;16.10;61.90;;;;;;4914436;28;99284;-41
2022/05/30 00:47:15;;;;;;;75.72;49.67;;;16.10;62.00;;;;;;4926205;28;98398;-39
2022/05/30 00:49:45;;;;;;;76.57;50.05;;;16.10;61.70;;;;;;4922403;28;95081;-43
2022/05/30 00:52:32;;;;;;;75.83;49.87;;;16.10;62.40;;;;;;4922235;28;95045;-40
2022/05/30 00:55:05;;;;;;;75.85;49.70;;;16.10;61.80;;;;;;4910143;28;96927;-39
2022/05/30 00:57:32;;;;;;;76.13;49.85;;;16.10;62.10;;;;;;4915304;28;95590;-40
2022/05/30 01:00:02;;;;;;;75.82;50.00;;;16.00;62.10;;;;;;4915673;28;95303;-38
2022/05/30 01:02:33;;;;;;;76.43;49.72;;;16.00;62.20;;;;;;4920504;28;94219;-39
2022/05/30 01:07:46;;;;;;;75.60;49.50;;;16.00;62.30;;;;;;4916173;28;99491;-40
2022/05/30 01:10:14;;;;;;;76.40;49.85;;;16.00;62.30;;;;;;4907370;28;101650;-40
2022/05/30 01:12:41;;;;;;;76.07;49.75;;;16.00;62.30;;;;;;4919258;28;95471;-39
2022/05/30 01:15:11;;;;;;;77.28;49.95;;;16.00;63.20;;;;;;4909005;28;95267;-40
2022/05/30 01:17:46;;;;;;;75.80;49.83;;;15.90;62.30;;;;;;4917148;28;95481;-39
2022/05/30 01:20:44;;;;;;;75.50;49.55;;;15.90;62.20;;;;;;4917235;28;95156;-42
2022/05/30 01:23:15;;;;;;;76.03;49.70;;;15.90;62.40;;;;;;4923471;28;96135;-42
2022/05/30 01:25:59;;;;;;;75.53;49.55;;;15.90;62.40;;;;;;4906036;28;96439;-39
2022/05/30 01:28:54;;;;;;;76.07;49.78;;;15.90;62.20;;;;;;4898964;28;104061;-39
2022/05/30 01:31:21;;;;;;;75.80;49.78;;;15.90;62.50;;;;;;4921188;28;95038;-42
2022/05/30 01:33:46;;;;;;;76.10;49.75;;;15.90;62.50;;;;;;4933726;28;96421;-41
2022/05/30 01:36:12;;;;;;;75.38;49.85;;;15.90;62.60;;;;;;4917738;28;96694;-40
2022/05/30 01:38:38;;;;;;;75.60;49.67;;;15.80;62.50;;;;;;4924877;28;96893;-39
2022/05/30 01:41:04;;;;;;;75.90;49.80;;;15.90;62.70;;;;;;4917951;28;95129;-39
2022/05/30 01:43:30;;;;;;;76.35;49.90;;;15.80;62.40;;;;;;4912631;28;98665;-37
2022/05/30 01:45:56;;;;;;;75.03;49.50;;;15.80;62.70;;;;;;4911824;28;96984;-39
2022/05/30 01:48:22;;;;;;;75.10;49.55;;;15.80;62.80;;;;;;4920537;28;96309;-40
2022/05/30 01:50:48;;;;;;;75.43;49.83;;;15.80;63.10;;;;;;4920009;28;95831;-39
2022/05/30 01:53:14;;;;;;;75.35;49.53;;;15.80;62.60;;;;;;4918142;28;95193;-40
2022/05/30 01:55:39;;;;;;;75.35;49.95;;;15.80;62.80;;;;;;4917332;28;101188;-42
2022/05/30 01:58:05;;;;;;;75.03;49.67;;;15.80;62.80;;;;;;4913706;28;95474;-42
2022/05/30 02:00:33;;;;;;;75.35;49.75;;;15.80;62.90;;;;;;4915498;28;100399;-39
2022/05/30 02:02:58;;;;;;;74.95;49.47;;;15.80;63.00;;;;;;4922380;28;95115;-39
2022/05/30 02:05:24;;;;;;;75.03;49.60;;;15.80;62.90;;;;;;4922264;28;96027;-41
2022/05/30 02:07:50;;;;;;;75.43;49.78;;;15.70;63.00;;;;;;4920144;28;95141;-40
2022/05/30 02:10:15;;;;;;;76.07;49.90;;;15.70;63.10;;;;;;4917801;28;95115;-39
2022/05/30 02:12:41;;;;;;;75.43;49.75;;;15.70;62.80;;;;;;4919734;28;95224;-42
2022/05/30 02:15:07;;;;;;;76.63;49.78;;;15.70;63.10;;;;;;4920123;28;95505;-40
2022/05/30 02:17:34;;;;;;;74.95;49.55;;;15.70;62.90;;;;;;4918010;28;96145;-40
2022/05/30 02:20:00;;;;;;;75.53;49.83;;;15.70;63.00;;;;;;4911295;28;97726;-42
2022/05/30 02:22:29;;;;;;;76.35;49.85;;;15.70;63.40;;;;;;4911683;28;96760;-40
2022/05/30 02:24:55;;;;;;;75.78;49.83;;;15.60;63.20;;;;;;4922089;28;96252;-42
2022/05/30 02:27:21;;;;;;;74.22;49.35;;;15.60;63.20;;;;;;4913781;28;96479;-39
2022/05/30 02:29:46;;;;;;;75.10;49.20;;;15.60;63.00;;;;;;4919457;28;96337;-42
2022/05/30 02:32:12;;;;;;;74.82;49.53;;;15.60;62.90;;;;;;4908787;28;96255;-38
2022/05/30 02:37:22;;;;;;;74.53;49.50;;;15.60;63.50;;;;;;4921652;28;98644;-41
2022/05/30 02:39:48;;;;;;;77.07;49.55;;;15.60;63.50;;;;;;4921554;28;94893;-39
2022/05/30 02:42:13;;;;;;;74.70;49.28;;;15.60;63.20;;;;;;4915362;28;95341;-41
2022/05/30 02:44:39;;;;;;;74.97;49.60;;;15.50;63.40;;;;;;4921454;28;96467;-39
2022/05/30 02:47:05;;;;;;;74.88;49.35;;;15.60;63.40;;;;;;4913319;28;97822;-41
2022/05/30 02:49:31;;;;;;;74.47;49.55;;;15.60;63.30;;;;;;4909601;28;96499;-38
2022/05/30 02:51:57;;;;;;;75.03;49.72;;;15.50;63.30;;;;;;4920880;28;96971;-39
2022/05/30 02:54:24;;;;;;;74.95;49.50;;;15.50;63.30;;;;;;4915846;28;96158;-39
2022/05/30 02:56:55;;;;;;;74.75;49.53;;;15.50;63.20;;;;;;4911515;28;96921;-38
2022/05/30 02:59:21;;;;;;;75.85;49.40;;;15.50;64.00;;;;;;4912457;28;95154;-42
2022/05/30 03:01:47;;;;;;;74.95;49.60;;;15.50;63.90;;;;;;4909473;28;99302;-39
2022/05/30 03:04:14;;;;;;;76.00;49.83;;;15.50;63.60;;;;;;4913196;28;96069;-39
2022/05/30 03:06:40;;;;;;;74.55;49.63;;;15.50;63.40;;;;;;4915525;28;95091;-40
2022/05/30 03:09:06;;;;;;;74.30;49.33;;;15.50;63.60;;;;;;4909305;28;95219;-41
2022/05/30 03:11:32;;;;;;;74.15;49.47;;;15.50;63.40;;;;;;4932794;28;95800;-39
2022/05/30 03:13:58;;;;;;;74.97;49.60;;;15.50;63.30;;;;;;4915685;28;96233;-41
2022/05/30 03:16:24;;;;;;;74.22;49.30;;;15.40;63.50;;;;;;4910507;28;98726;-38
2022/05/30 03:18:50;;;;;;;74.20;49.30;;;15.40;63.50;;;;;;4912160;28;95671;-40
2022/05/30 03:21:16;;;;;;;74.70;49.30;;;15.40;63.70;;;;;;4915277;28;95487;-40
2022/05/30 03:23:42;;;;;;;74.68;49.63;;;15.40;63.80;;;;;;4912333;28;97003;-42
2022/05/30 03:26:09;;;;;;;74.90;49.55;;;15.40;63.60;;;;;;4899876;28;95715;-40
2022/05/30 03:28:35;;;;;;;74.75;49.55;;;15.40;63.90;;;;;;4910646;28;101200;-45
2022/05/30 03:31:02;;;;;;;74.55;49.42;;;15.30;63.40;;;;;;4918721;28;94870;-38
2022/05/30 03:33:28;;;;;;;74.80;49.60;;;15.30;63.80;;;;;;4919283;28;95404;-44
2022/05/30 03:35:55;;;;;;;73.65;49.20;;;15.30;63.90;;;;;;4918918;28;95543;-40
2022/05/30 03:38:20;;;;;;;74.70;49.53;;;15.30;64.40;;;;;;4908321;28;95781;-38
2022/05/30 03:40:46;;;;;;;74.90;49.55;;;15.30;64.00;;;;;;4905040;28;95830;-39
2022/05/30 03:43:12;;;;;;;74.55;49.55;;;15.30;63.80;;;;;;4916176;28;95623;-39
2022/05/30 03:45:41;;;;;;;74.28;49.20;;;15.30;63.90;;;;;;4911528;28;95274;-41
2022/05/30 03:48:08;;;;;;;75.18;49.70;;;15.30;64.00;;;;;;4917354;28;95302;-37
2022/05/30 03:50:34;;;;;;;74.38;49.45;;;15.30;64.00;;;;;;4912534;28;94885;-42
2022/05/30 03:53:06;;;;;;;74.10;49.40;;;15.30;64.20;;;;;;4914192;28;95580;-40
2022/05/30 03:55:43;;;;;;;74.80;49.72;;;15.30;64.00;;;;;;4902721;28;94793;-41
2022/05/30 03:58:09;;;;;;;74.22;49.28;;;15.20;64.60;;;;;;4910838;28;100312;-41
2022/05/30 04:00:36;;;;;;;73.80;49.28;;;15.20;64.10;;;;;;4908478;28;95543;-39
2022/05/30 04:03:02;;;;;;;75.50;49.53;;;15.30;63.90;;;;;;4909541;28;98014;-40
2022/05/30 04:05:28;;;;;;;75.72;49.75;;;15.30;63.50;;;;;;4909906;28;97014;-40
2022/05/30 04:07:55;;;;;;;75.03;49.28;;;15.20;64.00;;;;;;4919126;28;96670;-40
2022/05/30 04:10:21;;;;;;;76.15;49.67;;;15.20;64.10;;;;;;4911938;28;95706;-42
2022/05/30 04:12:47;;;;;;;73.68;49.15;;;15.30;64.50;;;;;;4902713;28;95905;-39
2022/05/30 04:15:22;;;;;;;73.95;49.38;;;15.30;64.10;;;;;;4919129;28;95336;-40
2022/05/30 04:17:49;;;;;;;74.28;49.63;;;15.40;64.20;;;;;;4902154;28;96552;-42
2022/05/30 04:20:15;;;;;;;73.75;49.33;;;15.40;64.30;;;;;;4910906;28;95351;-40
2022/05/30 04:22:41;;;;;;;74.05;49.53;;;15.40;64.30;;;;;;4904570;28;95978;-42
2022/05/30 04:25:08;;;;;;;74.50;49.53;;;15.40;64.30;;;;;;4918380;28;95806;-38
2022/05/30 04:27:34;;;;;;;74.57;49.63;;;15.50;64.00;;;;;;4915435;28;96493;-38
2022/05/30 04:29:59;;;;;;;74.68;49.75;;;15.50;63.90;;;;;;4922110;28;96681;-38
2022/05/30 04:32:26;;;;;;;74.15;49.60;;;15.50;63.80;;;;;;4908259;28;96780;-41
2022/05/30 04:34:52;;;;;;;74.47;49.70;;;15.50;63.80;;;;;;4916575;28;95181;-41
2022/05/30 04:37:18;;;;;;;75.57;49.92;;;15.50;63.70;;;;;;4922819;28;94794;-42
2022/05/30 04:39:44;;;;;;;74.22;49.65;;;15.50;63.60;;;;;;4907520;28;95048;-39
2022/05/30 04:42:09;;;;;;;74.60;49.55;;;15.50;63.60;;;;;;4917887;28;95475;-39
2022/05/30 04:44:35;;;;;;;74.53;49.72;;;15.50;63.80;;;;;;4924081;28;95743;-40
2022/05/30 04:47:01;;;;;;;74.82;49.83;;;15.50;63.90;;;;;;4898888;28;95407;-41
2022/05/30 04:49:28;;;;;;;74.72;49.75;;;15.60;63.70;;;;;;4924957;28;95108;-43
2022/05/30 04:51:54;;;;;;;74.85;49.70;;;15.60;63.40;;;;;;4918597;28;96411;-39
2022/05/30 04:54:20;;;;;;;73.88;49.53;;;15.50;63.60;;;;;;4914625;28;97218;-38
2022/05/30 04:56:47;;;;;;;74.18;49.53;;;15.50;63.30;;;;;;4912606;28;97782;-41
2022/05/30 04:59:13;;;;;;;74.13;49.63;;;15.50;63.30;;;;;;4903865;28;95387;-39
2022/05/30 05:01:39;;;;;;;75.97;49.95;;;15.60;63.30;;;;;;4920829;28;95783;-39
2022/05/30 05:04:07;;;;;;;74.00;49.65;;;15.50;63.30;;;;;;4919598;28;96796;-41
2022/05/30 05:06:34;;;;;;;74.85;49.75;;;15.50;63.30;;;;;;4921353;28;95386;-41
2022/05/30 05:09:16;;;;;;;75.78;49.83;;;15.60;63.40;;;;;;4915064;28;94757;-41
2022/05/30 05:11:43;;;;;;;74.38;49.58;;;15.60;63.50;;;;;;4919397;28;95129;-42
2022/05/30 05:14:09;;;;;;;75.55;49.80;;;15.60;63.30;;;;;;4921427;28;95844;-42
2022/05/30 05:16:35;;;;;;;74.90;49.80;;;15.70;63.40;;;;;;4919284;28;96270;-38
2022/05/30 05:19:01;;;;;;;75.15;49.72;;;15.60;63.40;;;;;;4909876;28;94719;-40
2022/05/30 05:21:33;;;;;;;77.00;50.25;;;15.70;63.00;;;;;;4919265;28;96320;-42
2022/05/30 05:24:00;;;;;;;76.97;50.05;;;15.70;63.70;;;;;;4924058;28;96240;-40
2022/05/30 05:26:26;;;;;;;75.63;50.03;;;15.80;64.80;;;;;;4921733;28;96179;-39
2022/05/30 05:28:52;;;;;;;77.22;50.13;;;15.80;65.60;;;;;;4923319;28;95191;-42
2022/05/30 05:31:31;;;;;;;76.38;50.15;;;15.80;66.00;;;;;;4920531;28;96032;-39
2022/05/30 05:33:57;;;;;;;75.18;49.90;;;15.80;66.60;;;;;;4908958;28;97877;-41
2022/05/30 05:36:27;;;;;;;76.85;50.20;;;15.80;66.60;;;;;;4923856;28;95142;-40
2022/05/30 05:38:53;;;;;;;78.55;50.30;;;15.90;67.10;;;;;;4908575;28;95106;-39
2022/05/30 05:41:19;;;;;;;79.30;50.60;;;15.90;67.80;;;;;;4914656;28;97314;-39
2022/05/30 05:43:45;;;;;;;80.45;51.08;;;15.90;67.50;;;;;;4912945;28;96983;-41
2022/05/30 05:46:17;;;;;;;79.90;51.25;;;16.00;67.00;;;;;;4924920;28;95091;-38
2022/05/30 05:48:42;;;;;;;;;;;16.00;66.90;;;;;;4919534;28;95271;-38
2022/05/30 05:51:08;;;;;;;79.65;50.88;;;16.00;66.90;;;;;;4927299;28;95136;-42
2022/05/30 05:53:34;;;;;;;80.15;51.25;;;16.00;66.70;;;;;;4921958;28;98184;-39
2022/05/30 05:56:09;;;;;;;80.68;51.40;;;16.10;66.60;;;;;;4921155;28;94929;-38
2022/05/30 05:58:35;;;;;;;79.82;51.60;;;16.10;66.10;;;;;;4920138;28;94219;-40
2022/05/30 06:01:13;;;;;;;82.03;51.08;;;16.20;66.10;;;;;;4920275;28;95188;-40
2022/05/30 06:03:39;;;;;;;82.25;51.83;;;16.20;66.00;;;;;;4922452;28;95502;-41
2022/05/30 06:06:05;;;;;;;85.65;51.90;;;16.20;66.80;;;;;;4921373;28;97550;-40
2022/05/30 06:08:32;;;;;;;84.25;51.97;;;16.40;66.70;;;;;;4923979;28;94780;-39
2022/05/30 06:11:11;;;;;;;88.88;52.10;;;16.50;66.40;;;;;;4917054;28;95796;-40
2022/05/30 06:13:42;;;;;;;83.13;51.95;;;16.50;66.40;;;;;;4917687;28;95092;-42
2022/05/30 06:16:11;;;;;;;84.45;51.90;;;16.50;66.10;;;;;;4916423;28;95089;-40
2022/05/30 06:18:37;;;;;;;82.13;51.95;;;16.60;66.20;;;;;;4922014;28;95004;-41
2022/05/30 06:21:03;;;;;;;82.40;52.15;;;16.60;65.90;;;;;;4917280;28;95080;-43
2022/05/30 06:23:29;;;;;;;83.75;52.03;;;16.60;66.00;;;;;;4919039;28;95666;-41
2022/05/30 06:25:55;;;;;;;83.53;51.70;;;16.70;65.90;;;;;;4905896;28;96425;-41
2022/05/30 06:28:21;;;;;;;82.10;51.95;;;16.80;65.60;;;;;;4899497;28;95845;-41
2022/05/30 06:30:46;;;;;;;81.03;51.75;;;16.80;65.40;;;;;;4908224;28;96827;-39
2022/05/30 06:33:12;;;;;;;82.68;51.58;;;16.70;65.40;;;;;;4918286;28;97315;-39
2022/05/30 06:35:45;;;;;;;82.60;52.03;;;16.70;65.80;;;;;;4918061;28;95654;-41
2022/05/30 06:38:12;;;;;;;80.45;51.47;;;16.80;65.40;;;;;;4921248;28;94840;-40
2022/05/30 06:40:38;;;;;;;83.38;51.78;;;16.80;65.30;;;;;;4912246;28;95169;-40
2022/05/30 06:43:04;;;;;;;82.80;51.75;;;16.80;65.20;;;;;;4922484;28;96369;-39
2022/05/30 06:45:31;;;;;;;83.72;52.13;;;16.80;65.30;;;;;;4927521;28;95463;-41
2022/05/30 06:47:57;;;;;;;83.78;51.75;;;16.80;65.40;;;;;;4924320;28;94788;-45
2022/05/30 06:50:23;;;;;;;82.45;51.72;;;16.80;65.00;;;;;;4924266;28;96942;-41
2022/05/30 06:52:48;;;;;;;82.75;51.78;;;16.80;65.30;;;;;;4924729;28;95064;-40
2022/05/30 06:55:14;;;;;;;81.90;51.70;;;16.80;65.30;;;;;;4910655;28;96315;-42
2022/05/30 07:00:24;;;;;;;80.47;51.63;;;16.90;65.40;;;;;;4926894;28;95164;-41
2022/05/30 07:02:51;;;;;;;81.45;51.78;;;16.90;65.30;;;;;;4917173;28;95610;-40
2022/05/30 07:05:17;;;;;;;83.03;51.83;;;17.00;65.20;;;;;;4899094;28;98067;-41
2022/05/30 07:07:45;;;;;;;80.20;51.45;;;17.00;65.00;;;;;;4928751;28;95179;-40
2022/05/30 07:10:11;;;;;;;82.75;51.97;;;17.00;65.40;;;;;;4911061;28;97046;-40
2022/05/30 07:12:37;;;;;;;82.15;51.60;;;17.00;65.10;;;;;;4925715;28;94612;-42
2022/05/30 07:15:03;;;;;;;82.90;51.97;;;17.10;64.70;;;;;;4924532;28;95274;-41
2022/05/30 07:17:29;;;;;;;83.13;52.03;;;17.10;64.70;;;;;;4919447;28;95025;-41
2022/05/30 07:19:57;;;;;;;82.50;51.63;;;17.20;64.80;;;;;;4922926;28;96207;-40
2022/05/30 07:22:23;;;;;;;80.65;51.55;;;17.30;64.00;;;;;;4919027;28;95739;-42
2022/05/30 07:24:52;;;;;;;81.25;51.75;;;17.40;63.70;;;;;;4909088;28;95249;-42
2022/05/30 07:27:18;;;;;;;82.60;52.25;;;17.60;63.30;;;;;;4916430;28;97082;-39
2022/05/30 07:29:43;;;;;;;83.13;52.17;;;17.70;62.70;;;;;;4910045;28;96861;-40
2022/05/30 07:32:09;;;;;;;83.68;51.90;;;17.80;62.20;;;;;;4906003;28;99994;-41
2022/05/30 07:34:37;;;;;;;83.68;52.45;;;17.90;62.00;;;;;;4922107;28;95140;-41
2022/05/30 07:37:04;;;;;;;83.85;52.05;;;17.90;61.50;;;;;;4913287;28;95160;-42
2022/05/30 07:39:29;;;;;;;82.53;51.85;;;18.00;61.30;;;;;;4901947;28;95316;-41
2022/05/30 07:41:55;;;;;;;82.70;52.15;;;18.00;60.90;;;;;;4925103;28;95809;-41
2022/05/30 07:44:21;;;;;;;82.18;51.85;;;18.10;60.40;;;;;;4914221;28;100428;-39
2022/05/30 07:46:46;;;;;;;83.30;52.22;;;18.10;60.10;;;;;;4906589;28;96547;-41
2022/05/30 07:49:13;;;;;;;86.10;52.35;;;18.20;59.70;;;;;;4915756;28;96084;-39
2022/05/30 07:51:39;;;;;;;86.82;52.33;;;18.30;59.60;;;;;;4920612;28;96317;-39
2022/05/30 07:54:05;;;;;;;82.88;52.25;;;18.40;59.10;;;;;;4917285;28;95300;-41
2022/05/30 07:56:30;;;;;;;85.75;52.53;;;18.50;58.90;;;;;;4913741;28;101799;-39
2022/05/30 07:58:56;;;;;;;82.43;52.15;;;18.50;58.50;;;;;;4895962;28;102499;-41
2022/05/30 08:01:22;;;;;;;82.57;52.17;;;18.60;58.60;;;;;;4849639;28;95508;-39
2022/05/30 08:03:52;;;;;;;82.55;51.92;;;18.60;58.30;;;;;;4909872;28;96298;-43
2022/05/30 08:06:24;;;;;;;85.45;52.47;;;18.70;58.30;;;;;;4920153;28;95688;-39
2022/05/30 08:08:51;;;;;;;82.75;51.85;;;18.80;57.70;;;;;;4922226;28;96172;-40
2022/05/30 08:11:17;;;;;;;82.65;52.15;;;18.80;58.00;;;;;;4923238;28;95996;-38
2022/05/30 08:13:45;;;;;;;85.40;52.00;;;18.80;58.10;;;;;;4917720;28;95456;-41
2022/05/30 08:16:12;;;;;;;84.47;52.60;;;18.80;58.10;;;;;;4917417;28;95210;-42
2022/05/30 08:18:37;;;;;;;83.20;52.17;;;18.80;58.10;;;;;;4922704;28;95396;-40
2022/05/30 08:21:04;;;;;;;82.93;51.88;;;18.80;58.10;;;;;;4928352;28;97580;-40
2022/05/30 08:23:31;;;;;;;81.80;51.92;;;18.70;58.20;;;;;;4915295;28;95678;-39
2022/05/30 08:25:57;;;;;;;81.97;52.20;;;18.80;58.40;;;;;;4918083;28;94210;-41
2022/05/30 08:28:23;;;;;;;82.07;52.05;;;18.70;58.20;;;;;;4922340;28;95787;-40
2022/05/30 08:30:49;;;;;;;82.47;51.88;;;18.80;58.30;;;;;;4923616;28;94925;-40
2022/05/30 08:33:18;;;;;;;82.88;51.95;;;18.80;58.10;;;;;;4915684;28;99576;-39
2022/05/30 08:35:47;;;;;;;83.90;52.28;;;18.80;57.90;;;;;;4902535;28;95409;-40
2022/05/30 08:38:14;;;;;;;83.72;52.15;;;18.90;57.80;;;;;;4923573;28;96746;-39
2022/05/30 08:43:34;;;;;;;83.55;52.15;;;19.00;57.70;;;;;;4924060;28;95081;-39
2022/05/30 08:46:23;;;;;;;84.20;51.83;;;19.00;57.80;;;;;;4924932;28;95971;-40
2022/05/30 08:49:10;;;;;;;83.22;51.90;;;19.00;57.80;;;;;;4931420;28;95706;-41
2022/05/30 08:52:15;;;;;;;84.47;52.10;;;19.00;57.70;;;;;;4924507;28;95056;-42
2022/05/30 08:54:59;;;;;;;82.45;52.20;;;19.00;57.80;;;;;;4921899;28;95042;-42
2022/05/30 08:57:35;;;;;;;83.05;52.15;;;19.00;57.60;;;;;;4928471;28;94608;-41
2022/05/30 09:00:00;;;;;;;82.22;52.20;;;19.00;57.70;;;;;;4923307;28;99592;-40
2022/05/30 09:02:36;;;;;;;83.80;52.35;;;19.10;57.50;;;;;;4917199;28;96542;-45
2022/05/30 09:05:34;;;;;;;83.78;52.22;;;19.10;57.50;;;;;;4917785;28;95618;-44
2022/05/30 09:08:07;;;;;;;82.97;52.10;;;19.10;57.40;;;;;;4924417;28;95756;-40
2022/05/30 09:10:41;;;;;;;84.30;52.63;;;19.20;57.30;;;;;;4913097;28;95291;-40
2022/05/30 09:13:21;;;;;;;82.40;52.33;;;19.20;57.20;;;;;;4930404;28;95022;-40
2022/05/30 09:16:13;;;;;;;82.90;52.28;;;19.20;57.30;;;;;;4913811;28;95757;-40
2022/05/30 09:18:48;;;;;;;81.88;52.33;;;19.20;57.10;;;;;;4908437;28;94432;-39
2022/05/30 09:21:14;;;;;;;85.13;52.67;;;19.30;57.20;;;;;;4924611;28;95062;-41
2022/05/30 09:23:40;;;;;;;83.07;52.67;;;19.30;57.00;;;;;;4925128;28;95212;-44
2022/05/30 09:26:12;;;;;;;83.85;52.28;;;19.40;56.70;;;;;;4917284;28;97010;-42
2022/05/30 09:28:41;;;;;;;83.30;52.42;;;19.50;56.60;;;;;;4919739;28;94761;-41
2022/05/30 09:31:10;;;;;;;83.20;52.30;;;19.50;56.50;;;;;;4918040;28;95326;-41
2022/05/30 09:33:42;;;;;;;86.43;52.65;;;19.60;56.30;;;;;;4900253;28;97709;-43
2022/05/30 09:36:19;;;;;;;83.03;52.25;;;19.60;56.30;;;;;;4920643;28;94747;-41
2022/05/30 09:39:28;;;;;;;82.85;52.28;;;19.60;56.20;;;;;;4927012;28;96001;-41
2022/05/30 09:41:59;;;;;;;82.63;52.17;;;19.60;56.00;;;;;;4923959;28;97186;-41
2022/05/30 09:44:49;;;;;;;84.05;52.40;;;19.70;55.70;;;;;;4920433;28;95983;-39
2022/05/30 09:47:17;;;;;;;82.43;52.08;;;19.80;55.60;;;;;;4924094;28;95548;-46
2022/05/30 09:49:46;;;;;;;83.32;52.50;;;19.80;55.50;;;;;;4926674;28;95611;-39
2022/05/30 09:52:33;;;;;;;83.88;52.63;;;19.90;55.10;;;;;;4931026;28;96114;-43
2022/05/30 09:55:01;;;;;;;83.72;52.63;;;20.00;55.10;;;;;;4918925;28;95691;-41
2022/05/30 09:57:33;;;;;;;83.50;52.53;;;20.00;54.80;;;;;;4911333;28;96993;-40
2022/05/30 10:00:12;;;;;;;82.97;52.65;;;20.00;54.70;;;;;;4927950;28;95176;-42
2022/05/30 10:02:39;;;;;;;84.93;52.42;;;20.00;55.00;;;;;;4921538;28;95980;-43
2022/05/30 10:05:06;;;;;;;82.60;52.60;;;20.00;55.10;;;;;;4917012;28;97879;-43
2022/05/30 10:07:34;;;;;;;84.68;52.55;;;20.00;55.20;;;;;;4925088;28;95077;-41
2022/05/30 10:10:19;;;;;;;83.47;52.38;;;20.00;55.10;;;;;;4918027;28;94310;-40
2022/05/30 10:12:53;;;;;;;83.45;52.17;;;20.00;55.20;;;;;;4917873;28;94954;-41
2022/05/30 10:15:22;;;;;;;86.13;52.55;;;20.00;55.10;;;;;;4916165;28;95147;-42
2022/05/30 10:17:48;;;;;;;83.28;52.55;;;20.00;55.10;;;;;;4915099;28;97581;-41
2022/05/30 10:20:20;;;;;;;83.85;52.40;;;20.10;55.30;;;;;;4925517;28;95344;-44
2022/05/30 10:28:51;;;;;;;84.03;52.88;;;20.20;55.10;;;;;;4912244;28;97921;-40
2022/05/30 10:31:50;;;;;;;83.43;52.85;;;20.30;55.00;;;;;;4920299;28;94858;-43
2022/05/30 10:34:21;;;;;;;83.30;52.80;;;20.40;55.50;;;;;;4910061;28;94706;-42
2022/05/30 10:36:59;;;;;;;85.80;52.65;;;20.40;54.80;;;;;;4919085;28;94998;-40
2022/05/30 10:39:58;;;;;;;83.50;52.58;;;20.40;54.70;;;;;;4923080;28;95096;-40
2022/05/30 10:42:45;;;;;;;84.55;52.78;;;20.40;54.70;;;;;;4925665;28;95047;-39
2022/05/30 10:45:13;;;;;;;83.43;52.30;;;20.50;54.70;;;;;;4923240;28;95976;-43
2022/05/30 10:47:45;;;;;;;84.15;52.42;;;20.40;54.30;;;;;;4922621;28;96268;-39
2022/05/30 10:50:46;;;;;;;96.47;52.63;;;20.30;54.50;;;;;;4926105;28;95502;-43
2022/05/30 10:53:47;;;;;;;82.57;52.22;;;20.30;54.80;;;;;;4916851;28;97861;-40
2022/05/30 10:56:44;;;;;;;83.07;52.22;;;20.20;55.00;;;;;;4921873;28;96146;-40
2022/05/30 10:59:15;;;;;;;83.82;52.15;;;20.20;55.20;;;;;;4914949;28;95330;-41
2022/05/30 11:01:58;;;;;;;82.22;52.00;;;20.10;55.20;;;;;;4921022;28;95143;-45
2022/05/30 11:04:45;;;;;;;82.20;52.03;;;20.10;55.50;;;;;;4905260;28;98850;-38
2022/05/30 11:07:32;;;;;;;83.47;52.05;;;20.10;55.40;;;;;;4919539;28;95542;-42
2022/05/30 11:10:33;;;;;;;83.60;52.33;;;20.00;55.70;;;;;;4911931;28;95351;-40
2022/05/30 11:13:05;;;;;;;84.63;52.38;;;20.00;55.80;;;;;;4921027;28;96158;-40
2022/05/30 11:15:49;;;;;;;82.78;52.17;;;20.00;55.80;;;;;;4922835;28;95151;-41
2022/05/30 11:18:23;;;;;;;82.05;51.83;;;20.00;55.90;;;;;;4921344;28;96381;-45
2022/05/30 11:21:13;;;;;;;82.25;52.15;;;20.00;55.70;;;;;;4918729;28;99044;-41
2022/05/30 11:23:38;;;;;;;82.65;52.28;;;20.00;55.80;;;;;;4920985;28;94894;-39
2022/05/30 11:26:43;;;;;;;81.93;52.05;;;20.00;55.60;;;;;;4925778;28;95229;-44
2022/05/30 11:29:33;;;;;;;85.60;52.55;;;20.10;55.60;;;;;;4898866;28;95567;-40
2022/05/30 11:32:03;;;;;;;83.07;52.30;;;20.10;55.00;;;;;;4923626;28;97071;-41
2022/05/30 11:35:07;;;;;;;83.00;52.40;;;20.20;54.70;;;;;;4911166;28;96469;-42
2022/05/30 11:38:03;;;;;;;84.00;52.47;;;20.30;54.70;;;;;;4927640;28;94794;-42
2022/05/30 11:40:39;;;;;;;83.78;52.45;;;20.40;54.30;;;;;;4923948;28;95922;-39
2022/05/30 11:43:22;;;;;;;84.03;52.75;;;20.50;54.60;;;;;;4919785;28;96188;-39
2022/05/30 11:45:54;;;;;;;83.97;53.05;;;20.60;54.30;;;;;;4922674;28;94948;-43
2022/05/30 11:48:35;;;;;;;85.10;52.92;;;20.70;54.20;;;;;;4919184;28;95502;-41
2022/05/30 11:51:15;;;;;;;83.72;52.92;;;20.80;54.00;;;;;;4921334;28;99963;-40
2022/05/30 11:54:03;;;;;;;84.70;52.80;;;20.80;53.80;;;;;;4921434;28;95117;-42
2022/05/30 11:57:06;;;;;;;84.75;53.03;;;20.90;53.70;;;;;;4922016;28;98023;-42
2022/05/30 12:00:27;;;;;;;85.18;52.88;;;20.90;53.60;;;;;;4925714;28;94530;-40
2022/05/30 12:02:58;;;;;;;85.20;52.77;;;20.90;53.50;;;;;;4912168;28;95845;-40
2022/05/30 12:06:02;;;;;;;85.85;52.92;;;20.90;53.50;;;;;;4913616;28;95390;-41
2022/05/30 12:08:46;;;;;;;86.13;53.20;;;20.90;53.70;;;;;;4906364;28;96209;-41
2022/05/30 12:11:33;;;;;;;85.10;53.03;;;20.90;53.60;;;;;;4919078;28;96037;-41
2022/05/30 12:14:20;;;;;;;84.07;53.03;;;20.90;53.60;;;;;;4882071;28;1194784;-40
2022/05/30 12:16:58;;;;;;;86.20;52.95;;;20.90;53.50;;;;;;4923574;28;95198;-42
2022/05/30 12:25:36;;;;;;;86.00;53.03;;;21.10;53.20;;;;;;4917120;28;98622;-42
2022/05/30 12:28:28;;;;;;;85.33;53.13;;;21.10;53.10;;;;;;4900303;28;95174;-41
2022/05/30 12:30:59;;;;;;;85.50;53.00;;;21.10;53.00;;;;;;4918859;28;95735;-40
2022/05/30 12:33:30;;;;;;;84.20;53.05;;;21.20;52.90;;;;;;4907109;28;97218;-40
2022/05/30 12:36:08;;;;;;;85.85;53.03;;;21.10;52.80;;;;;;4915349;28;96391;-39
2022/05/30 12:38:53;;;;;;;84.65;53.00;;;21.20;52.80;;;;;;4922283;28;98523;-40
2022/05/30 12:41:34;;;;;;;85.25;53.03;;;21.20;52.90;;;;;;4915553;28;95994;-40
2022/05/30 12:44:00;;;;;;;85.35;53.33;;;21.20;52.90;;;;;;4930979;28;95602;-40
2022/05/30 12:46:31;;;;;;;84.28;53.03;;;21.20;52.90;;;;;;4921108;28;98180;-44
2022/05/30 12:49:28;;;;;;;84.63;53.08;;;21.20;52.80;;;;;;4921415;28;94694;-39
2022/05/30 12:52:01;;;;;;;84.88;52.80;;;21.20;53.20;;;;;;4921038;28;95243;-40
2022/05/30 12:54:36;;;;;;;84.13;52.83;;;21.20;52.80;;;;;;4913910;28;96331;-41
2022/05/30 12:57:08;;;;;;;84.30;52.72;;;21.20;52.80;;;;;;4920468;28;98195;-40
2022/05/30 13:00:00;;;;;;;84.15;52.67;;;21.20;52.80;;;;;;4924798;28;97153;-44
2022/05/30 13:02:45;;;;;;;83.88;52.88;;;21.20;52.80;;;;;;4914990;28;97605;-40
2022/05/30 13:05:30;;;;;;;85.93;52.95;;;21.20;52.80;;;;;;4907611;28;95419;-41
2022/05/30 13:07:56;;;;;;;83.72;52.55;;;21.10;52.70;;;;;;4929581;28;95222;-41
2022/05/30 13:10:21;;;;;;;84.15;52.92;;;21.10;52.70;;;;;;4913469;28;96696;-41